Time;durP1;ratioP1;P1;durP2;ratioP2;P2;SDS_P1;SDS_P2;PMS_P1;PMS_P2;Temp;Humidity;BMP_temperature;BMP_pressure;BME280_temperature;BME280_humidity;BME280_pressure;Samples;Min_cycle;Max_cycle;Signal;HPM_P1;HPM_P2
2022/08/16 00:01:56;;;;;;;4.40;3.80;;;;;;;16.66;54.74;100063.94;5032835;28;20120;-73
2022/08/16 00:04:22;;;;;;;5.93;4.15;;;;;;;16.54;55.18;100063.25;5014978;28;20091;-72
2022/08/16 00:06:48;;;;;;;11.02;4.00;;;;;;;16.51;55.21;100063.53;5032588;28;20130;-72
2022/08/16 00:09:14;;;;;;;5.07;4.57;;;;;;;16.45;55.49;100064.97;5031603;28;20045;-73
2022/08/16 00:11:42;;;;;;;9.95;3.95;;;;;;;16.33;55.69;100054.47;5015036;28;20048;-73
2022/08/16 00:14:13;;;;;;;8.50;4.45;;;;;;;16.33;56.13;100066.13;5031298;28;20053;-73
2022/08/16 00:16:40;;;;;;;4.93;3.95;;;;;;;16.21;56.36;100056.44;5031579;28;20489;-74
2022/08/16 00:19:06;;;;;;;6.85;4.50;;;;;;;16.23;56.48;100076.03;5014864;28;20129;-71
2022/08/16 00:21:32;;;;;;;10.70;4.82;;;;;;;16.18;56.43;100070.22;5015022;28;20469;-73
2022/08/16 00:23:59;;;;;;;7.22;4.45;;;;;;;16.09;56.67;100061.13;5032549;28;20058;-72
2022/08/16 00:26:25;;;;;;;5.38;3.90;;;;;;;16.10;57.07;100070.06;5032610;28;20083;-73
2022/08/16 00:28:51;;;;;;;10.93;4.72;;;;;;;16.04;57.13;100066.09;4998361;28;20420;-72
2022/08/16 00:31:17;;;;;;;9.98;3.92;;;;;;;16.04;57.18;100071.47;5014913;28;20057;-74
2022/08/16 00:33:43;;;;;;;7.75;4.47;;;;;;;16.01;57.51;100072.59;5015157;28;20411;-74
2022/08/16 00:36:09;;;;;;;10.68;5.10;;;;;;;15.95;57.17;100078.56;5031043;28;20094;-73
2022/08/16 00:38:35;;;;;;;10.50;4.80;;;;;;;15.96;57.31;100079.44;5032125;28;20099;-73
2022/08/16 00:41:01;;;;;;;10.02;5.50;;;;;;;15.93;57.45;100085.09;5030877;28;20046;-71
2022/08/16 00:43:34;;;;;;;7.18;4.97;;;;;;;15.89;57.66;100078.28;5032497;28;20052;-74
2022/08/16 00:46:29;;;;;;;9.13;4.80;;;;;;;15.93;57.84;100090.47;4998401;28;20049;-73
2022/08/16 00:48:55;;;;;;;11.88;5.70;;;;;;;15.82;58.04;100080.66;4992982;28;20140;-72
2022/08/16 00:51:24;;;;;;;9.93;5.15;;;;;;;15.83;57.79;100090.44;5014554;28;20094;-73
2022/08/16 00:53:52;;;;;;;8.70;5.85;;;;;;;15.85;57.83;100093.03;5014544;28;20049;-73
2022/08/16 00:56:25;;;;;;;9.48;5.47;;;;;;;15.82;57.81;100093.28;5031022;28;20496;-74
2022/08/16 00:58:52;;;;;;;7.30;4.97;;;;;;;15.82;57.89;100096.00;5014358;28;20041;-73
2022/08/16 01:01:18;;;;;;;8.13;4.90;;;;;;;15.79;57.97;100100.66;5032324;28;20567;-72
2022/08/16 01:03:48;;;;;;;12.43;5.13;;;;;;;15.83;57.80;100101.22;5031284;28;20108;-73
2022/08/16 01:06:17;;;;;;;11.75;5.38;;;;;;;15.85;57.78;100103.81;5018150;28;20091;-72
2022/08/16 01:08:45;;;;;;;11.32;5.18;;;;;;;15.88;57.94;100103.53;5034434;28;20139;-72
2022/08/16 01:11:12;;;;;;;11.75;4.95;;;;;;;15.89;57.71;100099.84;5034791;28;20175;-73
2022/08/16 01:13:39;;;;;;;6.75;4.90;;;;;;;15.95;57.53;100102.00;5034314;28;20056;-74
2022/08/16 01:16:26;;;;;;;8.77;5.13;;;;;;;15.96;57.27;100101.00;5018313;28;20500;-74
2022/08/16 01:19:00;;;;;;;7.65;4.75;;;;;;;15.92;57.55;100104.97;5018260;28;20053;-73
2022/08/16 01:21:57;;;;;;;9.65;5.55;;;;;;;15.85;58.15;100096.56;5035128;28;20045;-73
2022/08/16 01:24:32;;;;;;;6.50;5.80;;;;;;;15.83;57.87;100105.78;5035512;28;20508;-74
2022/08/16 01:27:14;;;;;;;15.32;6.25;;;;;;;15.88;58.04;100100.84;5019115;28;20048;-73
2022/08/16 01:30:06;;;;;;;10.10;6.47;;;;;;;15.90;57.53;100102.38;5018492;28;20386;-74
2022/08/16 01:32:37;;;;;;;12.38;5.93;;;;;;;15.90;57.57;100104.22;4994723;28;20056;-74
2022/08/16 01:35:08;;;;;;;7.93;4.43;;;;;;;15.88;57.61;100098.16;5033983;28;20057;-73
2022/08/16 01:37:44;;;;;;;10.73;4.30;;;;;;;15.93;57.07;100107.50;5033770;28;20088;-73
2022/08/16 01:40:13;;;;;;;9.10;3.83;;;;;;;15.90;57.19;100093.44;5016707;28;20060;-73
2022/08/16 01:42:39;;;;;;;5.88;3.20;;;;;;;15.98;57.26;100120.56;5017699;28;20400;-73
2022/08/16 01:45:06;;;;;;;6.40;3.55;;;;;;;15.99;57.01;100112.34;5017451;28;20045;-73
2022/08/16 01:47:33;;;;;;;8.43;3.55;;;;;;;15.95;56.53;100104.69;5017544;28;20052;-74
2022/08/16 01:49:59;;;;;;;3.72;3.10;;;;;;;15.94;56.47;100103.81;5000453;28;20117;-72
2022/08/16 01:52:25;;;;;;;7.57;3.50;;;;;;;15.93;56.53;100101.28;5034869;28;20039;-72
2022/08/16 01:54:57;;;;;;;5.07;3.05;;;;;;;15.95;56.77;100112.78;5034054;28;20057;-74
2022/08/16 01:57:24;;;;;;;7.47;3.30;;;;;;;15.93;56.97;100112.06;5017033;28;20127;-73
2022/08/16 01:59:50;;;;;;;10.38;3.30;;;;;;;15.90;56.93;100109.63;5033225;28;20091;-73
2022/08/16 02:02:17;;;;;;;7.20;3.40;;;;;;;15.86;56.93;100111.75;5000737;28;20045;-73
2022/08/16 02:04:43;;;;;;;13.48;3.45;;;;;;;15.86;56.71;100095.56;5033230;28;20103;-73
2022/08/16 02:07:12;;;;;;;5.82;3.42;;;;;;;15.89;57.09;100116.88;5016916;28;20051;-73
2022/08/16 02:09:40;;;;;;;10.18;3.30;;;;;;;15.85;56.59;100109.19;5000817;28;20461;-73
2022/08/16 02:12:08;;;;;;;6.20;3.58;;;;;;;15.83;56.97;100114.72;5016632;28;20124;-73
2022/08/16 02:14:36;;;;;;;5.07;3.25;;;;;;;15.85;57.03;100123.53;5016832;28;20048;-73
2022/08/16 02:17:05;;;;;;;7.78;3.70;;;;;;;15.88;56.84;100119.72;5016382;28;20115;-73
2022/08/16 02:19:35;;;;;;;9.45;3.28;;;;;;;15.87;56.69;100128.78;5033014;28;20091;-73
2022/08/16 02:22:01;;;;;;;;;;;;;;;15.88;56.77;100125.09;5033247;28;20042;-72
2022/08/16 02:24:28;;;;;;;9.02;3.67;;;;;;;15.87;56.96;100117.97;5016379;28;19921;-73
2022/08/16 02:26:55;;;;;;;5.55;3.83;;;;;;;15.92;57.31;100123.84;5016246;28;20079;-73
2022/08/16 02:29:22;;;;;;;9.15;4.22;;;;;;;15.98;57.19;100123.25;5016134;28;20041;-72
2022/08/16 02:31:50;;;;;;;9.60;5.28;;;;;;;15.95;57.41;100137.03;5032651;28;20492;-73
2022/08/16 02:34:19;;;;;;;12.50;5.10;;;;;;;16.00;57.82;100129.38;5032461;28;20041;-73
2022/08/16 02:36:46;;;;;;;8.40;5.30;;;;;;;16.03;57.85;100134.50;5016317;28;20048;-75
2022/08/16 02:39:14;;;;;;;7.25;5.60;;;;;;;16.07;57.70;100124.31;5000022;28;20128;-76
2022/08/16 02:41:42;;;;;;;7.50;5.47;;;;;;;16.06;57.52;100123.44;4998982;28;20460;-75
2022/08/16 02:44:11;;;;;;;10.03;5.90;;;;;;;16.14;57.40;100129.00;5015310;28;20084;-74
2022/08/16 02:46:40;;;;;;;12.98;5.90;;;;;;;16.19;57.58;100129.41;5015943;28;20451;-75
2022/08/16 02:49:07;;;;;;;12.93;5.55;;;;;;;16.18;57.71;100121.47;5032134;28;20080;-74
2022/08/16 02:51:34;;;;;;;16.20;5.78;;;;;;;16.27;57.21;100132.25;4999954;28;20041;-75
2022/08/16 02:54:01;;;;;;;11.00;5.30;;;;;;;16.30;57.25;100135.69;4999694;28;20488;-75
2022/08/16 02:56:28;;;;;;;13.23;5.35;;;;;;;16.36;57.10;100133.28;5023490;28;20059;-75
2022/08/16 02:58:54;;;;;;;13.95;6.03;;;;;;;16.43;57.41;100136.25;5028258;28;20075;-75
2022/08/16 03:01:25;;;;;;;13.80;4.93;;;;;;;16.50;56.98;100126.59;5051950;28;20098;-75
2022/08/16 03:03:53;;;;;;;14.10;5.72;;;;;;;16.58;56.82;100124.03;5018577;28;20090;-75
2022/08/16 03:06:20;;;;;;;20.42;5.18;;;;;;;16.61;56.70;100126.47;5035126;28;20396;-76
2022/08/16 03:08:49;;;;;;;9.25;5.70;;;;;;;16.78;56.36;100134.91;5036115;28;20102;-75
2022/08/16 03:11:17;;;;;;;24.15;5.25;;;;;;;16.81;56.60;100134.59;5052358;28;20078;-75
2022/08/16 03:13:46;;;;;;;12.50;5.13;;;;;;;16.91;55.99;100133.59;5018846;28;20411;-75
2022/08/16 03:16:12;;;;;;;10.37;4.93;;;;;;;16.92;56.09;100126.31;5018899;28;20079;-74
2022/08/16 03:18:39;;;;;;;6.15;4.20;;;;;;;16.99;56.26;100138.25;5035319;28;20136;-75
2022/08/16 03:21:06;;;;;;;9.77;5.00;;;;;;;17.09;55.75;100120.19;5018747;28;20041;-75
2022/08/16 03:23:33;;;;;;;12.60;5.72;;;;;;;17.28;55.33;100140.06;5051527;28;20132;-75
2022/08/16 03:26:00;;;;;;;7.47;4.90;;;;;;;17.36;55.05;100130.22;5028272;28;20045;-77
2022/08/16 03:28:26;;;;;;;10.00;4.93;;;;;;;17.44;55.06;100133.03;5035599;28;20534;-81
2022/08/16 03:30:52;;;;;;;7.70;5.13;;;;;;;17.41;55.16;100133.34;5022644;28;20037;-76
2022/08/16 03:33:20;;;;;;;10.07;5.22;;;;;;;17.39;55.13;100123.66;5034906;28;20044;-76
2022/08/16 03:35:57;;;;;;;13.65;5.38;;;;;;;17.51;54.79;100127.88;5035065;28;20045;-77
2022/08/16 03:38:29;;;;;;;10.65;4.68;;;;;;;17.63;54.73;100128.53;5035540;28;20041;-76
2022/08/16 03:40:57;;;;;;;19.77;5.00;;;;;;;17.65;54.81;100127.41;5035157;28;20044;-77
2022/08/16 03:43:26;;;;;;;6.95;4.78;;;;;;;17.73;54.51;100126.66;5051263;28;20063;-76
2022/08/16 03:45:54;;;;;;;15.98;5.05;;;;;;;17.78;54.31;100123.53;5051500;28;20419;-78
2022/08/16 03:48:27;;;;;;;12.65;5.03;;;;;;;17.92;54.13;100141.97;5051787;28;20052;-76
2022/08/16 03:50:53;;;;;;;10.13;4.50;;;;;;;18.00;54.02;100136.66;5034456;28;20105;-76
2022/08/16 03:53:20;;;;;;;9.57;4.70;;;;;;;18.09;54.08;100133.06;5051248;28;20114;-76
2022/08/16 03:55:47;;;;;;;13.45;4.72;;;;;;;18.24;53.61;100135.22;5052577;28;20045;-76
2022/08/16 03:58:14;;;;;;;15.75;4.82;;;;;;;18.34;53.21;100136.84;5034333;28;20044;-76
2022/08/16 04:00:41;;;;;;;11.68;4.45;;;;;;;18.29;53.41;100130.22;5050912;28;20045;-75
2022/08/16 04:03:10;;;;;;;16.98;5.10;;;;;;;18.48;52.37;100138.19;5048957;28;20068;-77
2022/08/16 04:05:47;;;;;;;20.10;4.60;;;;;;;18.41;52.22;100110.03;5033296;28;20045;-78
2022/08/16 04:08:15;;;;;;;20.33;4.93;;;;;;;18.72;52.35;100134.88;5033440;28;20036;-75
2022/08/16 04:10:41;;;;;;;10.27;4.40;;;;;;;18.85;51.36;100131.78;5033944;28;20041;-77
2022/08/16 04:13:07;;;;;;;22.25;4.65;;;;;;;18.88;51.51;100118.78;5033903;28;20056;-76
2022/08/16 04:15:33;;;;;;;14.75;4.72;;;;;;;19.10;51.20;100122.81;5033576;28;20049;-76
2022/08/16 04:18:15;;;;;;;19.15;4.35;;;;;;;19.34;50.27;100140.28;5034148;28;20049;-75
2022/08/16 04:20:41;;;;;;;13.18;4.18;;;;;;;19.46;50.15;100136.28;5034462;28;20091;-76
2022/08/16 04:23:08;;;;;;;11.60;4.28;;;;;;;19.64;50.22;100134.38;5051014;28;20041;-76
2022/08/16 04:25:37;;;;;;;11.93;3.80;;;;;;;19.83;49.86;100135.13;5051079;28;20396;-76
2022/08/16 04:28:05;;;;;;;13.70;4.30;;;;;;;19.95;49.01;100122.97;5018535;28;20079;-76
2022/08/16 04:30:31;;;;;;;9.73;5.00;;;;;;;20.07;48.65;100135.22;5051009;28;20141;-75
2022/08/16 04:32:57;;;;;;;16.35;5.38;;;;;;;20.16;47.77;100132.53;5051067;28;20457;-76
2022/08/16 04:35:25;;;;;;;15.40;4.78;;;;;;;20.29;46.74;100130.19;5034159;28;20041;-75
2022/08/16 04:37:52;;;;;;;9.63;4.63;;;;;;;20.22;46.19;100118.28;5034254;28;20128;-77
2022/08/16 04:40:23;;;;;;;10.55;4.30;;;;;;;20.25;46.38;100126.97;5038046;28;20041;-75
2022/08/16 04:42:51;;;;;;;11.77;4.88;;;;;;;20.27;46.84;100140.34;5037976;28;20044;-75
2022/08/16 04:45:20;;;;;;;15.88;4.25;;;;;;;20.44;46.42;100139.38;5054734;28;20131;-77
2022/08/16 04:47:47;;;;;;;12.52;4.13;;;;;;;20.65;45.85;100135.34;5054541;28;20056;-75
2022/08/16 04:50:20;;;;;;;15.57;4.40;;;;;;;20.63;45.99;100127.38;5037747;28;20040;-75
2022/08/16 04:53:05;;;;;;;10.02;3.80;;;;;;;20.89;45.44;100132.66;5037746;28;20067;-78
2022/08/16 04:55:34;;;;;;;15.30;3.67;;;;;;;21.07;44.49;100138.78;5021735;28;20056;-76
2022/08/16 04:58:01;;;;;;;10.50;3.45;;;;;;;21.10;43.81;100140.31;5055008;28;20135;-76
2022/08/16 05:00:34;;;;;;;18.50;4.00;;;;;;;21.20;43.92;100143.69;5038053;28;20049;-75
2022/08/16 05:03:16;;;;;;;8.13;3.30;;;;;;;21.24;42.92;100119.72;5038248;28;20043;-75
2022/08/16 05:05:45;;;;;;;7.50;3.47;;;;;;;21.39;43.30;100136.22;5038358;28;20393;-75
2022/08/16 05:08:14;;;;;;;10.82;4.07;;;;;;;21.54;42.90;100137.19;5021553;28;20056;-76
2022/08/16 05:10:43;;;;;;;5.97;3.70;;;;;;;21.72;42.23;100134.25;5054667;28;20142;-77
2022/08/16 05:13:10;;;;;;;17.60;3.85;;;;;;;21.64;42.42;100137.84;5055713;28;20395;-76
2022/08/16 05:15:37;;;;;;;12.15;3.60;;;;;;;21.57;42.66;100121.38;5054888;28;20041;-76
2022/08/16 05:18:03;;;;;;;8.95;3.35;;;;;;;21.86;42.46;100138.13;5054639;28;20044;-75
2022/08/16 05:20:41;;;;;;;7.20;3.47;;;;;;;21.95;42.07;100129.72;5054121;28;20045;-76
2022/08/16 05:23:07;;;;;;;8.25;3.53;;;;;;;22.04;42.01;100134.13;5053866;28;20416;-77
2022/08/16 05:25:35;;;;;;;9.73;3.83;;;;;;;22.02;41.95;100128.00;5037744;28;20067;-76
2022/08/16 05:28:02;;;;;;;15.05;4.25;;;;;;;22.10;42.28;100124.38;5037269;28;20488;-76
2022/08/16 05:30:28;;;;;;;9.95;3.65;;;;;;;22.28;42.20;100135.88;5053938;28;20044;-76
2022/08/16 05:32:54;;;;;;;9.38;4.03;;;;;;;22.31;41.96;100131.97;5037521;28;20041;-74
2022/08/16 05:35:21;;;;;;;17.15;3.75;;;;;;;22.47;42.22;100134.56;5020996;28;20045;-75
2022/08/16 05:38:09;;;;;;;;;;;;;;;22.59;41.46;100136.88;5037866;28;20052;-76
2022/08/16 05:40:36;;;;;;;18.15;3.95;;;;;;;22.76;41.06;100125.69;5037298;28;20368;-76
2022/08/16 05:43:02;;;;;;;20.75;4.57;;;;;;;22.86;40.30;100140.91;5036743;28;20121;-76
2022/08/16 05:45:28;;;;;;;9.00;3.58;;;;;;;23.05;40.14;100131.41;5053696;28;20048;-76
2022/08/16 05:47:58;;;;;;;16.15;4.07;;;;;;;23.18;38.96;100132.50;5036939;28;20045;-75
2022/08/16 05:50:25;;;;;;;13.30;3.60;;;;;;;23.12;38.45;100121.47;5052765;28;20040;-76
2022/08/16 05:52:53;;;;;;;9.98;3.72;;;;;;;23.02;38.37;100106.22;5020509;28;20147;-75
2022/08/16 05:55:19;;;;;;;6.50;3.22;;;;;;;22.96;38.24;100134.22;5036710;28;20045;-76
2022/08/16 05:57:46;;;;;;;9.27;3.25;;;;;;;23.11;38.34;100125.25;5020417;28;20527;-76
2022/08/16 06:00:13;;;;;;;15.98;4.35;;;;;;;23.12;37.72;100116.03;5053388;28;20404;-76
2022/08/16 06:02:40;;;;;;;8.88;3.53;;;;;;;23.13;37.75;100128.63;5054433;28;20060;-76
2022/08/16 06:05:26;;;;;;;25.15;3.67;;;;;;;23.33;37.48;100124.34;5036380;28;20041;-76
2022/08/16 06:07:52;;;;;;;8.30;3.40;;;;;;;23.29;37.68;100117.56;5036916;28;20094;-75
2022/08/16 06:10:25;;;;;;;7.80;3.60;;;;;;;23.60;37.43;100120.13;5053323;28;20423;-76
2022/08/16 06:12:51;;;;;;;7.45;3.80;;;;;;;23.89;36.95;100126.63;5053031;28;20045;-76
2022/08/16 06:15:19;;;;;;;14.70;4.28;;;;;;;23.91;36.79;100127.28;5053422;28;20500;-76
2022/08/16 06:17:49;;;;;;;7.38;4.32;;;;;;;24.02;36.20;100123.22;5036506;28;20039;-76
2022/08/16 06:20:24;;;;;;;14.10;4.00;;;;;;;24.10;35.99;100109.44;5021282;28;20474;-75
2022/08/16 06:22:57;;;;;;;9.70;3.47;;;;;;;24.33;36.05;100120.22;5036971;28;20330;-76
2022/08/16 06:25:27;;;;;;;20.77;3.97;;;;;;;24.44;35.57;100123.31;5020731;28;20039;-76
2022/08/16 06:27:55;;;;;;;18.40;3.88;;;;;;;24.55;35.79;100123.84;5035986;28;20573;-75
2022/08/16 06:30:22;;;;;;;14.25;3.55;;;;;;;24.67;35.36;100117.69;5036836;28;20135;-77
2022/08/16 06:32:49;;;;;;;14.90;3.78;;;;;;;24.83;34.56;100126.66;5036681;28;20053;-76
2022/08/16 06:35:17;;;;;;;10.52;3.42;;;;;;;24.69;33.79;100128.41;5020149;28;20071;-76
2022/08/16 06:37:46;;;;;;;16.58;3.65;;;;;;;24.67;33.97;100133.22;5036256;28;20177;-76
2022/08/16 06:40:13;;;;;;;10.15;3.30;;;;;;;24.77;33.82;100121.97;5019827;28;20064;-76
2022/08/16 06:42:45;;;;;;;4.97;3.15;;;;;;;24.78;33.83;100119.03;5036400;28;20123;-76
2022/08/16 06:45:36;;;;;;;6.15;3.17;;;;;;;24.82;33.69;100119.47;5052458;28;20051;-76
2022/08/16 06:48:16;;;;;;;9.05;3.25;;;;;;;24.88;33.00;100114.06;5021444;28;20036;-76
2022/08/16 06:50:42;;;;;;;15.45;3.40;;;;;;;25.10;33.04;100133.22;5053499;28;20043;-77
2022/08/16 06:53:09;;;;;;;15.40;3.70;;;;;;;25.16;32.89;100121.47;5052761;28;20040;-75
2022/08/16 06:55:47;;;;;;;;;;;;;;;25.23;33.17;100121.53;5036416;28;20052;-76
2022/08/16 06:58:15;;;;;;;15.70;3.28;;;;;;;25.37;33.15;100126.91;5035588;28;19920;-77
2022/08/16 07:00:41;;;;;;;15.68;3.40;;;;;;;25.31;32.50;100118.66;5035963;28;20053;-76
2022/08/16 07:03:10;;;;;;;7.60;3.20;;;;;;;25.34;32.48;100119.09;5053437;28;20072;-78
2022/08/16 07:05:36;;;;;;;14.27;3.17;;;;;;;25.47;31.97;100114.78;5051958;28;20048;-77
2022/08/16 07:08:23;;;;;;;12.57;3.00;;;;;;;25.74;32.14;100108.41;5035366;28;20045;-77
2022/08/16 07:10:50;;;;;;;15.05;3.58;;;;;;;26.07;31.90;100114.06;5035412;28;20076;-76
2022/08/16 07:13:18;;;;;;;17.33;3.00;;;;;;;26.33;31.21;100113.31;5035338;28;20513;-76
2022/08/16 07:15:44;;;;;;;14.23;2.95;;;;;;;26.21;30.47;100120.41;5052928;28;20049;-75
2022/08/16 07:18:11;;;;;;;17.90;3.13;;;;;;;26.01;30.98;100120.34;5053107;28;20105;-76
2022/08/16 07:20:37;;;;;;;15.13;3.45;;;;;;;25.75;31.13;100118.28;5035231;28;20072;-76
2022/08/16 07:23:05;;;;;;;11.82;3.20;;;;;;;26.03;30.93;100121.00;5018551;28;20114;-76
2022/08/16 07:25:43;;;;;;;9.50;3.13;;;;;;;26.31;31.10;100109.91;5051991;28;20036;-77
2022/08/16 07:28:15;;;;;;;19.45;3.28;;;;;;;26.63;30.68;100116.56;5051888;28;20168;-76
2022/08/16 07:30:42;;;;;;;11.80;2.90;;;;;;;26.64;29.89;100112.75;5019180;28;20444;-75
2022/08/16 07:33:12;;;;;;;10.70;3.20;;;;;;;26.23;30.06;100115.59;5035480;28;20049;-76
2022/08/16 07:35:39;;;;;;;10.40;3.47;;;;;;;26.31;30.47;100109.06;5018539;28;20055;-76
2022/08/16 07:38:06;;;;;;;6.68;2.97;;;;;;;26.28;30.17;100104.00;5051903;28;20190;-77
2022/08/16 07:40:42;;;;;;;9.60;2.75;;;;;;;26.36;30.11;100107.38;5019867;28;20044;-77
2022/08/16 07:43:08;;;;;;;8.65;2.85;;;;;;;26.47;29.87;100105.13;5034580;28;20057;-76
2022/08/16 07:45:37;;;;;;;13.48;2.85;;;;;;;26.49;29.57;100094.81;5051302;28;20072;-76
2022/08/16 07:48:03;;;;;;;5.55;2.70;;;;;;;26.61;29.72;100093.13;5051087;28;20044;-75
2022/08/16 07:50:32;;;;;;;15.20;3.00;;;;;;;26.73;29.33;100091.47;5034994;28;20040;-75
2022/08/16 07:52:58;;;;;;;9.07;2.70;;;;;;;26.97;29.53;100103.72;5034801;28;20059;-76
2022/08/16 07:55:24;;;;;;;12.52;2.80;;;;;;;26.79;28.90;100092.53;5051554;28;20079;-78
2022/08/16 07:57:49;;;;;;;10.02;2.90;;;;;;;26.64;29.65;100099.06;5051307;28;20051;-76
2022/08/16 08:00:16;;;;;;;12.25;3.58;;;;;;;26.85;29.50;100103.50;5051231;28;20043;-76
2022/08/16 08:02:46;;;;;;;9.48;2.78;;;;;;;26.99;29.03;100084.28;5051274;28;20510;-77
2022/08/16 08:05:19;;;;;;;19.63;3.15;;;;;;;27.19;28.82;100098.84;5051415;28;20502;-78
2022/08/16 08:07:45;;;;;;;4.95;2.47;;;;;;;27.13;28.83;100093.41;5051305;28;20523;-76
2022/08/16 08:10:12;;;;;;;5.93;2.40;;;;;;;27.24;28.83;100082.63;5018354;28;20036;-77
2022/08/16 08:12:38;;;;;;;13.80;3.10;;;;;;;27.45;28.46;100091.66;5034549;28;20048;-77
2022/08/16 08:15:08;;;;;;;4.50;2.47;;;;;;;27.41;28.11;100087.66;5053849;28;20056;-77
2022/08/16 08:17:37;;;;;;;10.63;2.60;;;;;;;27.45;27.72;100092.47;5054892;28;20467;-77
2022/08/16 08:20:10;;;;;;;8.15;2.50;;;;;;;27.46;27.24;100079.63;5038506;28;20041;-77
2022/08/16 08:22:37;;;;;;;9.50;2.75;;;;;;;27.40;27.65;100088.72;5038332;28;20045;-77
2022/08/16 08:25:07;;;;;;;10.05;2.92;;;;;;;27.41;27.84;100093.13;5056543;28;20460;-77
2022/08/16 08:27:34;;;;;;;9.82;2.90;;;;;;;27.40;27.99;100081.31;5055875;28;20051;-76
2022/08/16 08:30:01;;;;;;;3.43;2.63;;;;;;;27.58;27.59;100089.72;5054763;28;20049;-77
2022/08/16 08:32:30;;;;;;;4.57;2.50;;;;;;;27.76;27.60;100075.34;5038804;28;20044;-77
2022/08/16 08:35:01;;;;;;;8.13;2.63;;;;;;;28.00;27.01;100081.16;5038863;28;20537;-77
2022/08/16 08:37:31;;;;;;;5.05;2.38;;;;;;;28.20;26.41;100081.03;5038462;28;20134;-76
2022/08/16 08:39:58;;;;;;;8.30;2.47;;;;;;;28.17;26.47;100076.84;5038268;28;20037;-78
2022/08/16 08:42:25;;;;;;;5.55;2.42;;;;;;;28.16;26.54;100075.13;5054766;28;20049;-76
2022/08/16 08:44:52;;;;;;;13.15;2.80;;;;;;;28.30;26.64;100076.75;5021705;28;20095;-77
2022/08/16 08:47:19;;;;;;;8.02;2.78;;;;;;;28.32;26.02;100085.63;5054795;28;20045;-77
2022/08/16 08:49:46;;;;;;;10.98;2.63;;;;;;;28.36;26.33;100085.16;5054516;28;20128;-77
2022/08/16 08:52:13;;;;;;;10.93;2.55;;;;;;;28.55;26.20;100085.09;5054692;28;20112;-76
2022/08/16 08:54:39;;;;;;;4.25;2.10;;;;;;;28.83;26.21;100085.72;5037908;28;20140;-76
2022/08/16 08:57:06;;;;;;;4.18;2.30;;;;;;;28.78;25.47;100078.16;5038035;28;20069;-76
2022/08/16 08:59:37;;;;;;;11.70;2.20;;;;;;;28.49;25.20;100082.38;5037821;28;20033;-76
2022/08/16 09:02:07;;;;;;;7.57;2.42;;;;;;;28.44;25.42;100088.56;5054478;28;20052;-77
2022/08/16 09:04:46;;;;;;;11.73;2.47;;;;;;;28.45;25.02;100078.38;5054610;28;20040;-77
2022/08/16 09:07:13;;;;;;;3.70;2.25;;;;;;;28.41;25.24;100082.66;5038072;28;20049;-76
2022/08/16 09:09:40;;;;;;;13.35;2.95;;;;;;;28.64;25.41;100076.56;5055432;28;20439;-76
2022/08/16 09:12:08;;;;;;;4.53;1.85;;;;;;;28.90;24.47;100081.84;5054216;28;20128;-78
2022/08/16 09:14:49;;;;;;;7.60;2.40;;;;;;;28.79;24.09;100075.16;5037640;28;20044;-77
2022/08/16 09:17:15;;;;;;;3.88;1.80;;;;;;;28.80;23.71;100074.09;5054164;28;20051;-77
2022/08/16 09:19:41;;;;;;;5.93;2.08;;;;;;;28.85;24.28;100072.56;5054213;28;20144;-77
2022/08/16 09:22:09;;;;;;;11.40;2.30;;;;;;;29.04;23.38;100063.34;5037493;28;20102;-76
2022/08/16 09:24:35;;;;;;;3.40;1.67;;;;;;;29.43;23.60;100080.53;5037443;28;20043;-77
2022/08/16 09:27:02;;;;;;;7.03;1.90;;;;;;;29.62;22.93;100076.75;5036211;28;20514;-76
2022/08/16 09:29:28;;;;;;;9.63;2.25;;;;;;;29.63;22.59;100070.16;5054035;28;20091;-77
2022/08/16 09:31:55;;;;;;;7.53;1.98;;;;;;;29.63;22.09;100070.16;5055015;28;20455;-77
2022/08/16 09:34:22;;;;;;;7.05;1.90;;;;;;;29.49;22.71;100074.13;5021143;28;20415;-77
2022/08/16 09:36:48;;;;;;;3.08;2.00;;;;;;;29.38;22.91;100077.63;5053763;28;20131;-76
2022/08/16 09:39:14;;;;;;;3.65;1.80;;;;;;;29.67;21.95;100074.13;5037248;28;20043;-77
2022/08/16 09:41:40;;;;;;;5.05;1.90;;;;;;;29.82;21.99;100067.41;5054011;28;20048;-77
2022/08/16 09:44:07;;;;;;;5.78;1.98;;;;;;;30.02;21.80;100070.75;5054592;28;20061;-76
2022/08/16 09:46:33;;;;;;;7.32;2.08;;;;;;;30.41;21.88;100063.00;5054979;28;20550;-77
2022/08/16 09:48:59;;;;;;;4.80;2.22;;;;;;;30.50;22.34;100069.88;5054354;28;20041;-76
2022/08/16 09:51:25;;;;;;;4.25;2.08;;;;;;;30.72;22.11;100067.41;5036554;28;20515;-77
2022/08/16 09:53:54;;;;;;;4.53;1.85;;;;;;;30.86;21.79;100068.06;5054399;28;20047;-76
2022/08/16 09:56:29;;;;;;;5.30;1.90;;;;;;;31.11;20.98;100079.72;5053545;28;20404;-76
2022/08/16 09:58:56;;;;;;;6.57;1.80;;;;;;;31.11;20.63;100068.69;5053329;28;20041;-75
2022/08/16 10:01:23;;;;;;;1.75;1.45;;;;;;;30.72;20.50;100070.16;5054721;28;20048;-77
2022/08/16 10:03:53;;;;;;;7.25;1.60;;;;;;;30.87;20.77;100064.22;5053788;28;20041;-76
2022/08/16 10:06:21;;;;;;;4.53;2.15;;;;;;;30.87;20.78;100062.28;5053121;28;20041;-76
2022/08/16 10:08:48;;;;;;;3.42;1.80;;;;;;;30.87;20.89;100064.22;5053310;28;20041;-78
2022/08/16 10:13:59;;;;;;;11.30;2.00;;;;;;;30.79;21.30;100061.81;5036522;28;20079;-77
2022/08/16 10:16:25;;;;;;;6.65;1.80;;;;;;;31.51;20.86;100065.19;5053181;28;20068;-76
2022/08/16 10:18:51;;;;;;;5.45;1.60;;;;;;;31.80;20.27;100052.28;5052948;28;20518;-76
2022/08/16 10:21:17;;;;;;;5.88;2.00;;;;;;;32.07;20.57;100055.34;5052984;28;20518;-76
2022/08/16 10:23:44;;;;;;;6.60;2.00;;;;;;;32.12;20.34;100055.47;5052627;28;20079;-76
2022/08/16 10:26:11;;;;;;;2.85;1.60;;;;;;;32.22;19.46;100048.44;5053148;28;20187;-76
2022/08/16 10:28:37;;;;;;;4.28;1.73;;;;;;;32.33;19.52;100061.38;5052879;28;20051;-77
2022/08/16 10:31:05;;;;;;;14.40;1.95;;;;;;;32.42;18.70;100048.81;5052784;28;20043;-76
2022/08/16 10:33:32;;;;;;;3.23;1.87;;;;;;;32.58;19.11;100058.25;5052545;28;20045;-77
2022/08/16 10:36:00;;;;;;;3.28;1.60;;;;;;;32.77;18.82;100050.56;5052761;28;20041;-76
2022/08/16 10:38:26;;;;;;;10.38;2.00;;;;;;;32.86;18.83;100052.63;5035942;28;20056;-76
2022/08/16 10:40:53;;;;;;;5.93;1.33;;;;;;;32.52;18.69;100043.47;5052823;28;20048;-76
2022/08/16 10:43:19;;;;;;;11.82;1.40;;;;;;;32.92;18.59;100064.66;5053677;28;20072;-76
2022/08/16 10:45:47;;;;;;;5.03;1.23;;;;;;;33.05;17.79;100058.78;5052171;28;20392;-77
2022/08/16 10:48:13;;;;;;;5.82;1.30;;;;;;;33.10;18.00;100060.81;5053506;28;20178;-77
2022/08/16 10:50:39;;;;;;;5.00;1.30;;;;;;;32.57;18.23;100045.47;5019149;28;20048;-76
2022/08/16 10:53:06;;;;;;;2.83;1.20;;;;;;;33.09;17.95;100057.19;5052560;28;20033;-76
2022/08/16 10:55:37;;;;;;;5.63;1.40;;;;;;;32.59;18.06;100051.63;5052227;28;20510;-76
2022/08/16 10:58:06;;;;;;;4.03;1.38;;;;;;;32.77;18.28;100039.47;5035578;28;20048;-77
2022/08/16 11:00:33;;;;;;;2.83;1.25;;;;;;;33.23;18.01;100051.28;5052201;28;20125;-77
2022/08/16 11:03:02;;;;;;;3.03;1.20;;;;;;;33.60;17.58;100049.63;5053483;28;20037;-77
2022/08/16 11:05:33;;;;;;;2.42;1.15;;;;;;;33.85;17.45;100039.94;5053178;28;20186;-77
2022/08/16 11:07:59;;;;;;;5.57;1.27;;;;;;;34.26;17.47;100051.53;5035613;28;20052;-78
2022/08/16 11:10:32;;;;;;;1.83;1.30;;;;;;;34.28;17.21;100050.16;5053650;28;20127;-76
2022/08/16 11:12:58;;;;;;;7.78;1.50;;;;;;;34.68;16.96;100042.50;5019107;28;20376;-77
2022/08/16 11:15:25;;;;;;;2.40;1.30;;;;;;;34.70;16.44;100040.31;5035180;28;20048;-76
2022/08/16 11:17:52;;;;;;;6.55;1.30;;;;;;;34.80;16.82;100035.69;5051993;28;20123;-76
2022/08/16 11:20:22;;;;;;;5.32;1.50;;;;;;;35.26;16.08;100010.19;5051972;28;20056;-76
2022/08/16 11:22:49;;;;;;;2.67;1.20;;;;;;;35.69;15.78;100027.63;5051803;28;20041;-76
2022/08/16 11:25:29;;;;;;;3.83;1.20;;;;;;;35.99;16.00;100024.16;5034888;28;20127;-77
2022/08/16 11:27:58;;;;;;;3.22;1.25;;;;;;;35.60;16.06;100026.50;5018572;28;20043;-77
2022/08/16 11:30:26;;;;;;;7.28;1.23;;;;;;;35.38;16.26;100030.25;5035109;28;20480;-77
2022/08/16 11:32:52;;;;;;;5.53;1.00;;;;;;;35.82;16.17;100018.81;5052622;28;20171;-77